Mojo_ii — FAB2678 — position and weather

sailwx.info

Track history (hours):
 
Tides and Currents Weather Stations Pressure Air Temp Water Temp Dewpoint Dewpoint Depression Visibility Wind Speed Wind Dir Waves Ship Positions

Mojo_ii

Last reported at 2018-Jan-11 17:16 UTC. Time now 2018-Jan-20 17:20 UTC.
Position N 14°28' W 060°53'.
Warning: this ship's position is 9 days out of date.

Type: Sailing vessel. MMSI: 227185390.

Date/timePositionNaut miles runAvg speedWind from/ knotsBaromVisibWave heightAir tempDewpointWater temp
2018-Jan-11 17:16N 14°28' W 060°53'0 0.0
2018-Jan-11 16:44N 14°28' W 060°53'0 1.8
2018-Jan-11 16:29N 14°28' W 060°53'2 4.2
2018-Jan-11 16:00N 14°27' W 060°55'2 5.0
2018-Jan-11 15:30N 14°27' W 060°57'  
2018-Jan-05 17:15N 14°26' W 061°01'1 5.4
2018-Jan-05 17:00N 14°26' W 060°59'3 5.6
2018-Jan-05 16:30N 14°26' W 060°56'3 5.6
2018-Jan-05 16:00N 14°27' W 060°54'2 3.7
2018-Jan-05 15:29N 14°28' W 060°52'0 0.0
2018-Jan-05 14:59N 14°28' W 060°52'0 0.9
2018-Jan-05 14:28N 14°28' W 060°53'0 0.0
2018-Jan-05 13:55N 14°28' W 060°53'0 0.0
2018-Jan-04 13:21N 14°28' W 060°53'0 0.0
2018-Jan-04 13:00N 14°28' W 060°53'0 0.0
2018-Jan-02 19:33N 14°28' W 060°53'0 0.1
2018-Jan-02 19:30N 14°28' W 060°53'1 2.6
2018-Jan-02 19:00N 14°27' W 060°53'  
Track history (hours):
 
Tides and Currents Weather Stations Pressure Air Temp Water Temp Dewpoint Dewpoint Depression Visibility Wind Speed Wind Dir Waves Ship Positions

Mojo_ii

Last reported at 2018-Jan-11 17:16 UTC. Time now 2018-Jan-20 17:20 UTC.
Position N 14°28' W 060°53'.
Warning: this ship's position is 9 days out of date.

Type: Sailing vessel. MMSI: 227185390.

Date/timePositionNaut miles runAvg speedWind from/ knotsBaromVisibWave heightAir tempDewpointWater temp
2018-Jan-11 17:16N 14°28' W 060°53'0 0.0
2018-Jan-11 16:44N 14°28' W 060°53'0 1.8
2018-Jan-11 16:29N 14°28' W 060°53'2 4.2
2018-Jan-11 16:00N 14°27' W 060°55'2 5.0
2018-Jan-11 15:30N 14°27' W 060°57'  
2018-Jan-05 17:15N 14°26' W 061°01'1 5.4
2018-Jan-05 17:00N 14°26' W 060°59'3 5.6
2018-Jan-05 16:30N 14°26' W 060°56'3 5.6
2018-Jan-05 16:00N 14°27' W 060°54'2 3.7
2018-Jan-05 15:29N 14°28' W 060°52'0 0.0
2018-Jan-05 14:59N 14°28' W 060°52'0 0.9
2018-Jan-05 14:28N 14°28' W 060°53'0 0.0
2018-Jan-05 13:55N 14°28' W 060°53'0 0.0
2018-Jan-04 13:21N 14°28' W 060°53'0 0.0
2018-Jan-04 13:00N 14°28' W 060°53'0 0.0
2018-Jan-02 19:33N 14°28' W 060°53'0 0.1
2018-Jan-02 19:30N 14°28' W 060°53'1 2.6
2018-Jan-02 19:00N 14°27' W 060°53'  

Dump ship's entire track history